sensor_id;sensor_type;location;lat;lon;timestamp;temperature;humidity
4487;DHT22;2256;48.740;9.106;2023-06-22T00:02:16;20.70;99.90
4487;DHT22;2256;48.740;9.106;2023-06-22T00:04:43;20.80;99.90
4487;DHT22;2256;48.740;9.106;2023-06-22T00:07:10;21.00;99.90
4487;DHT22;2256;48.740;9.106;2023-06-22T00:09:37;20.80;99.90
4487;DHT22;2256;48.740;9.106;2023-06-22T00:12:06;20.90;99.90
4487;DHT22;2256;48.740;9.106;2023-06-22T00:14:33;20.80;99.90
4487;DHT22;2256;48.740;9.106;2023-06-22T00:17:00;20.70;99.90
4487;DHT22;2256;48.740;9.106;2023-06-22T00:19:27;20.50;99.90
4487;DHT22;2256;48.740;9.106;2023-06-22T00:21:54;20.50;99.90
4487;DHT22;2256;48.740;9.106;2023-06-22T00:24:21;20.60;99.90
4487;DHT22;2256;48.740;9.106;2023-06-22T00:26:48;20.60;99.90
4487;DHT22;2256;48.740;9.106;2023-06-22T00:29:17;20.70;99.90
4487;DHT22;2256;48.740;9.106;2023-06-22T00:31:44;20.50;99.90
4487;DHT22;2256;48.740;9.106;2023-06-22T00:34:10;20.40;99.90
4487;DHT22;2256;48.740;9.106;2023-06-22T00:36:37;20.30;99.90
4487;DHT22;2256;48.740;9.106;2023-06-22T00:39:06;20.40;99.90
4487;DHT22;2256;48.740;9.106;2023-06-22T00:41:34;20.40;99.90
4487;DHT22;2256;48.740;9.106;2023-06-22T00:44:00;20.40;99.90
4487;DHT22;2256;48.740;9.106;2023-06-22T00:46:29;20.30;99.90
4487;DHT22;2256;48.740;9.106;2023-06-22T00:48:56;20.30;99.90
4487;DHT22;2256;48.740;9.106;2023-06-22T00:51:23;20.30;99.90
4487;DHT22;2256;48.740;9.106;2023-06-22T00:53:50;20.20;99.90
4487;DHT22;2256;48.740;9.106;2023-06-22T00:56:18;20.40;99.90
4487;DHT22;2256;48.740;9.106;2023-06-22T00:58:50;20.30;99.90
4487;DHT22;2256;48.740;9.106;2023-06-22T01:01:19;20.30;99.90
4487;DHT22;2256;48.740;9.106;2023-06-22T01:03:50;20.30;99.90
4487;DHT22;2256;48.740;9.106;2023-06-22T01:06:22;20.20;99.90
4487;DHT22;2256;48.740;9.106;2023-06-22T01:08:58;20.10;99.90
4487;DHT22;2256;48.740;9.106;2023-06-22T01:11:32;20.20;99.90
4487;DHT22;2256;48.740;9.106;2023-06-22T01:14:06;20.20;99.90
4487;DHT22;2256;48.740;9.106;2023-06-22T01:16:38;20.00;99.90
4487;DHT22;2256;48.740;9.106;2023-06-22T01:19:20;20.00;99.90
4487;DHT22;2256;48.740;9.106;2023-06-22T01:21:53;20.20;99.90
4487;DHT22;2256;48.740;9.106;2023-06-22T01:24:23;20.00;99.90
4487;DHT22;2256;48.740;9.106;2023-06-22T01:26:57;19.90;99.90
4487;DHT22;2256;48.740;9.106;2023-06-22T01:29:29;19.80;99.90
4487;DHT22;2256;48.740;9.106;2023-06-22T01:31:57;19.90;99.90
4487;DHT22;2256;48.740;9.106;2023-06-22T01:34:26;19.80;99.90
4487;DHT22;2256;48.740;9.106;2023-06-22T01:36:53;19.60;99.90
4487;DHT22;2256;48.740;9.106;2023-06-22T01:39:21;19.60;99.90
4487;DHT22;2256;48.740;9.106;2023-06-22T01:41:48;19.90;99.90
4487;DHT22;2256;48.740;9.106;2023-06-22T01:44:16;20.00;99.90
4487;DHT22;2256;48.740;9.106;2023-06-22T01:46:45;19.90;99.90
4487;DHT22;2256;48.740;9.106;2023-06-22T01:49:12;19.80;99.90
4487;DHT22;2256;48.740;9.106;2023-06-22T01:51:39;19.80;99.90
4487;DHT22;2256;48.740;9.106;2023-06-22T01:54:06;19.70;99.90
4487;DHT22;2256;48.740;9.106;2023-06-22T01:56:34;19.60;99.90
4487;DHT22;2256;48.740;9.106;2023-06-22T01:59:07;19.60;99.90
4487;DHT22;2256;48.740;9.106;2023-06-22T02:01:41;19.70;99.90
4487;DHT22;2256;48.740;9.106;2023-06-22T02:04:13;19.80;99.90
4487;DHT22;2256;48.740;9.106;2023-06-22T02:06:42;19.80;99.90
4487;DHT22;2256;48.740;9.106;2023-06-22T02:09:17;19.50;99.90
4487;DHT22;2256;48.740;9.106;2023-06-22T02:11:46;19.50;99.90
4487;DHT22;2256;48.740;9.106;2023-06-22T02:14:15;19.40;99.90
4487;DHT22;2256;48.740;9.106;2023-06-22T02:16:42;19.50;99.90
4487;DHT22;2256;48.740;9.106;2023-06-22T02:19:10;19.50;99.90
4487;DHT22;2256;48.740;9.106;2023-06-22T02:21:38;19.40;99.90
4487;DHT22;2256;48.740;9.106;2023-06-22T02:24:05;19.20;99.90
4487;DHT22;2256;48.740;9.106;2023-06-22T02:26:32;19.10;99.90
4487;DHT22;2256;48.740;9.106;2023-06-22T02:28:59;19.00;99.90
4487;DHT22;2256;48.740;9.106;2023-06-22T02:31:26;19.00;99.90
4487;DHT22;2256;48.740;9.106;2023-06-22T02:33:56;19.10;99.90
4487;DHT22;2256;48.740;9.106;2023-06-22T02:36:24;19.00;99.90
4487;DHT22;2256;48.740;9.106;2023-06-22T02:38:52;19.00;99.90
4487;DHT22;2256;48.740;9.106;2023-06-22T02:41:19;19.20;99.90
4487;DHT22;2256;48.740;9.106;2023-06-22T02:43:47;19.10;99.90
4487;DHT22;2256;48.740;9.106;2023-06-22T02:46:14;19.10;99.90
4487;DHT22;2256;48.740;9.106;2023-06-22T02:48:41;19.20;99.90
4487;DHT22;2256;48.740;9.106;2023-06-22T02:51:08;19.20;99.90
4487;DHT22;2256;48.740;9.106;2023-06-22T02:53:36;19.10;99.90
4487;DHT22;2256;48.740;9.106;2023-06-22T02:56:03;19.00;99.90
4487;DHT22;2256;48.740;9.106;2023-06-22T02:58:31;19.20;99.90
4487;DHT22;2256;48.740;9.106;2023-06-22T03:01:06;19.20;99.90
4487;DHT22;2256;48.740;9.106;2023-06-22T03:03:36;19.10;99.90
4487;DHT22;2256;48.740;9.106;2023-06-22T03:06:08;19.10;99.90
4487;DHT22;2256;48.740;9.106;2023-06-22T03:08:40;19.00;99.90
4487;DHT22;2256;48.740;9.106;2023-06-22T03:11:08;19.00;99.90
4487;DHT22;2256;48.740;9.106;2023-06-22T03:13:34;19.10;99.90
4487;DHT22;2256;48.740;9.106;2023-06-22T03:16:01;19.20;99.90
4487;DHT22;2256;48.740;9.106;2023-06-22T03:18:28;19.20;99.90
4487;DHT22;2256;48.740;9.106;2023-06-22T03:20:55;19.20;99.90
4487;DHT22;2256;48.740;9.106;2023-06-22T03:23:23;19.10;99.90
4487;DHT22;2256;48.740;9.106;2023-06-22T03:25:51;19.00;99.90
4487;DHT22;2256;48.740;9.106;2023-06-22T03:28:18;18.90;99.90
4487;DHT22;2256;48.740;9.106;2023-06-22T03:30:45;18.80;99.90
4487;DHT22;2256;48.740;9.106;2023-06-22T03:33:12;18.90;99.90
4487;DHT22;2256;48.740;9.106;2023-06-22T03:35:39;19.00;99.90
4487;DHT22;2256;48.740;9.106;2023-06-22T03:38:06;19.00;99.90
4487;DHT22;2256;48.740;9.106;2023-06-22T03:40:33;18.90;99.90
4487;DHT22;2256;48.740;9.106;2023-06-22T03:43:01;18.90;99.90
4487;DHT22;2256;48.740;9.106;2023-06-22T03:45:28;19.00;99.90
4487;DHT22;2256;48.740;9.106;2023-06-22T03:47:55;19.20;99.90
4487;DHT22;2256;48.740;9.106;2023-06-22T03:50:21;19.20;99.90
4487;DHT22;2256;48.740;9.106;2023-06-22T03:52:48;19.20;99.90
4487;DHT22;2256;48.740;9.106;2023-06-22T03:55:17;19.20;99.90
4487;DHT22;2256;48.740;9.106;2023-06-22T03:57:43;19.10;99.90
4487;DHT22;2256;48.740;9.106;2023-06-22T04:00:13;19.00;99.90
4487;DHT22;2256;48.740;9.106;2023-06-22T04:02:41;19.00;99.90
4487;DHT22;2256;48.740;9.106;2023-06-22T04:05:08;18.90;99.90
4487;DHT22;2256;48.740;9.106;2023-06-22T04:07:35;18.90;99.90
4487;DHT22;2256;48.740;9.106;2023-06-22T04:10:03;19.00;99.90
4487;DHT22;2256;48.740;9.106;2023-06-22T04:12:29;19.30;99.90
4487;DHT22;2256;48.740;9.106;2023-06-22T04:14:56;19.40;99.90
4487;DHT22;2256;48.740;9.106;2023-06-22T04:17:24;19.30;99.90
4487;DHT22;2256;48.740;9.106;2023-06-22T04:19:51;19.40;99.90
4487;DHT22;2256;48.740;9.106;2023-06-22T04:22:18;19.50;99.90
4487;DHT22;2256;48.740;9.106;2023-06-22T04:24:45;19.50;99.90
4487;DHT22;2256;48.740;9.106;2023-06-22T04:27:12;19.60;99.90
4487;DHT22;2256;48.740;9.106;2023-06-22T04:29:38;19.80;99.90
4487;DHT22;2256;48.740;9.106;2023-06-22T04:32:14;19.90;99.90
4487;DHT22;2256;48.740;9.106;2023-06-22T04:34:42;20.00;99.90
4487;DHT22;2256;48.740;9.106;2023-06-22T04:37:09;20.10;99.90
4487;DHT22;2256;48.740;9.106;2023-06-22T04:39:41;20.10;99.90
4487;DHT22;2256;48.740;9.106;2023-06-22T04:42:07;20.00;99.90
4487;DHT22;2256;48.740;9.106;2023-06-22T04:44:34;20.10;99.90
4487;DHT22;2256;48.740;9.106;2023-06-22T04:47:02;20.10;99.90
4487;DHT22;2256;48.740;9.106;2023-06-22T04:49:34;20.20;99.90
4487;DHT22;2256;48.740;9.106;2023-06-22T04:52:05;20.20;99.90
4487;DHT22;2256;48.740;9.106;2023-06-22T04:54:33;20.20;99.90
4487;DHT22;2256;48.740;9.106;2023-06-22T04:57:00;20.30;99.90
4487;DHT22;2256;48.740;9.106;2023-06-22T04:59:28;20.40;99.90
4487;DHT22;2256;48.740;9.106;2023-06-22T05:01:56;20.60;99.90
4487;DHT22;2256;48.740;9.106;2023-06-22T05:04:23;20.60;99.90
4487;DHT22;2256;48.740;9.106;2023-06-22T05:06:50;20.70;99.90
4487;DHT22;2256;48.740;9.106;2023-06-22T05:09:19;20.80;99.90
4487;DHT22;2256;48.740;9.106;2023-06-22T05:11:46;20.90;99.90
4487;DHT22;2256;48.740;9.106;2023-06-22T05:14:13;20.90;99.90
4487;DHT22;2256;48.740;9.106;2023-06-22T05:16:41;21.10;99.90
4487;DHT22;2256;48.740;9.106;2023-06-22T05:19:08;21.20;99.90
4487;DHT22;2256;48.740;9.106;2023-06-22T05:21:35;21.10;99.90
4487;DHT22;2256;48.740;9.106;2023-06-22T05:24:03;21.20;99.90
4487;DHT22;2256;48.740;9.106;2023-06-22T05:26:32;21.30;99.90
4487;DHT22;2256;48.740;9.106;2023-06-22T05:29:00;21.40;99.90
4487;DHT22;2256;48.740;9.106;2023-06-22T05:31:28;21.60;99.90
4487;DHT22;2256;48.740;9.106;2023-06-22T05:33:55;21.70;99.90
4487;DHT22;2256;48.740;9.106;2023-06-22T05:36:22;21.70;99.90
4487;DHT22;2256;48.740;9.106;2023-06-22T05:38:51;21.90;99.90
4487;DHT22;2256;48.740;9.106;2023-06-22T05:41:18;22.00;99.90
4487;DHT22;2256;48.740;9.106;2023-06-22T05:43:46;22.00;99.90
4487;DHT22;2256;48.740;9.106;2023-06-22T05:46:13;21.90;99.90
4487;DHT22;2256;48.740;9.106;2023-06-22T05:48:40;21.90;99.90
4487;DHT22;2256;48.740;9.106;2023-06-22T05:51:07;22.10;99.90
4487;DHT22;2256;48.740;9.106;2023-06-22T05:53:33;22.30;99.90
4487;DHT22;2256;48.740;9.106;2023-06-22T05:56:00;22.30;99.90
4487;DHT22;2256;48.740;9.106;2023-06-22T05:58:27;22.30;99.90
4487;DHT22;2256;48.740;9.106;2023-06-22T06:00:55;22.30;99.90
4487;DHT22;2256;48.740;9.106;2023-06-22T06:03:22;22.20;99.90
4487;DHT22;2256;48.740;9.106;2023-06-22T06:05:49;22.10;99.90
4487;DHT22;2256;48.740;9.106;2023-06-22T06:08:16;22.10;99.90
4487;DHT22;2256;48.740;9.106;2023-06-22T06:10:42;22.00;99.90
4487;DHT22;2256;48.740;9.106;2023-06-22T06:13:09;22.00;99.90
4487;DHT22;2256;48.740;9.106;2023-06-22T06:15:36;22.00;99.90
4487;DHT22;2256;48.740;9.106;2023-06-22T06:18:05;22.20;99.90
4487;DHT22;2256;48.740;9.106;2023-06-22T06:20:32;22.30;99.90
4487;DHT22;2256;48.740;9.106;2023-06-22T06:22:59;22.50;99.90
4487;DHT22;2256;48.740;9.106;2023-06-22T06:25:26;22.80;99.90
4487;DHT22;2256;48.740;9.106;2023-06-22T06:27:53;22.90;99.90
4487;DHT22;2256;48.740;9.106;2023-06-22T06:30:21;23.10;99.90
4487;DHT22;2256;48.740;9.106;2023-06-22T06:32:48;23.40;99.90
4487;DHT22;2256;48.740;9.106;2023-06-22T06:35:17;24.00;99.90
4487;DHT22;2256;48.740;9.106;2023-06-22T06:37:46;24.90;99.90
4487;DHT22;2256;48.740;9.106;2023-06-22T06:40:13;25.50;99.90
4487;DHT22;2256;48.740;9.106;2023-06-22T06:42:42;26.00;99.90
4487;DHT22;2256;48.740;9.106;2023-06-22T06:45:11;26.40;99.90
4487;DHT22;2256;48.740;9.106;2023-06-22T06:47:37;27.10;99.90
4487;DHT22;2256;48.740;9.106;2023-06-22T06:50:06;27.60;99.90
4487;DHT22;2256;48.740;9.106;2023-06-22T06:52:34;28.00;99.90
4487;DHT22;2256;48.740;9.106;2023-06-22T06:55:02;28.30;99.90
4487;DHT22;2256;48.740;9.106;2023-06-22T06:57:33;28.50;99.90
4487;DHT22;2256;48.740;9.106;2023-06-22T07:00:00;28.90;99.90
4487;DHT22;2256;48.740;9.106;2023-06-22T07:02:27;29.50;99.60
4487;DHT22;2256;48.740;9.106;2023-06-22T07:04:54;29.90;98.80
4487;DHT22;2256;48.740;9.106;2023-06-22T07:07:21;30.20;98.20
4487;DHT22;2256;48.740;9.106;2023-06-22T07:09:50;30.20;98.10
4487;DHT22;2256;48.740;9.106;2023-06-22T07:12:16;29.70;97.60
4487;DHT22;2256;48.740;9.106;2023-06-22T07:14:43;29.40;97.70
4487;DHT22;2256;48.740;9.106;2023-06-22T07:17:10;29.40;98.10
4487;DHT22;2256;48.740;9.106;2023-06-22T07:19:37;29.60;98.20
4487;DHT22;2256;48.740;9.106;2023-06-22T07:22:04;29.70;97.90
4487;DHT22;2256;48.740;9.106;2023-06-22T07:24:32;29.90;97.70
4487;DHT22;2256;48.740;9.106;2023-06-22T07:27:00;29.50;97.80
4487;DHT22;2256;48.740;9.106;2023-06-22T07:29:28;29.50;97.90
4487;DHT22;2256;48.740;9.106;2023-06-22T07:31:55;29.30;98.20
4487;DHT22;2256;48.740;9.106;2023-06-22T07:34:22;29.80;97.80
4487;DHT22;2256;48.740;9.106;2023-06-22T07:36:49;29.70;97.40
4487;DHT22;2256;48.740;9.106;2023-06-22T07:39:16;30.00;97.40
4487;DHT22;2256;48.740;9.106;2023-06-22T07:41:43;30.00;97.70
4487;DHT22;2256;48.740;9.106;2023-06-22T07:44:11;30.40;97.00
4487;DHT22;2256;48.740;9.106;2023-06-22T07:46:38;30.50;96.30
4487;DHT22;2256;48.740;9.106;2023-06-22T07:49:05;30.50;96.00
4487;DHT22;2256;48.740;9.106;2023-06-22T07:51:33;30.40;95.60
4487;DHT22;2256;48.740;9.106;2023-06-22T07:54:00;30.50;95.80
4487;DHT22;2256;48.740;9.106;2023-06-22T07:56:27;30.20;95.80
4487;DHT22;2256;48.740;9.106;2023-06-22T07:58:54;30.30;95.60
4487;DHT22;2256;48.740;9.106;2023-06-22T08:01:25;30.70;95.60
4487;DHT22;2256;48.740;9.106;2023-06-22T08:03:51;31.40;95.40
4487;DHT22;2256;48.740;9.106;2023-06-22T08:06:18;32.00;94.30
4487;DHT22;2256;48.740;9.106;2023-06-22T08:08:45;32.60;93.30
4487;DHT22;2256;48.740;9.106;2023-06-22T08:11:13;33.10;93.00
4487;DHT22;2256;48.740;9.106;2023-06-22T08:13:40;32.80;92.60
4487;DHT22;2256;48.740;9.106;2023-06-22T08:16:07;32.60;92.50
4487;DHT22;2256;48.740;9.106;2023-06-22T08:18:35;32.50;92.80
4487;DHT22;2256;48.740;9.106;2023-06-22T08:21:02;32.00;92.60
4487;DHT22;2256;48.740;9.106;2023-06-22T08:23:28;31.70;93.00
4487;DHT22;2256;48.740;9.106;2023-06-22T08:25:55;31.50;93.10
4487;DHT22;2256;48.740;9.106;2023-06-22T08:28:22;31.30;93.80
4487;DHT22;2256;48.740;9.106;2023-06-22T08:30:49;31.10;93.90
4487;DHT22;2256;48.740;9.106;2023-06-22T08:33:15;31.10;93.80
4487;DHT22;2256;48.740;9.106;2023-06-22T08:35:44;31.00;93.60
4487;DHT22;2256;48.740;9.106;2023-06-22T08:38:11;31.30;93.90
4487;DHT22;2256;48.740;9.106;2023-06-22T08:40:39;31.30;93.40
4487;DHT22;2256;48.740;9.106;2023-06-22T08:43:06;31.00;93.60
4487;DHT22;2256;48.740;9.106;2023-06-22T08:45:32;31.20;93.40
4487;DHT22;2256;48.740;9.106;2023-06-22T08:47:59;31.70;93.50
4487;DHT22;2256;48.740;9.106;2023-06-22T08:50:26;32.10;93.00
4487;DHT22;2256;48.740;9.106;2023-06-22T08:52:54;32.80;92.50
4487;DHT22;2256;48.740;9.106;2023-06-22T08:55:21;33.30;91.80
4487;DHT22;2256;48.740;9.106;2023-06-22T08:57:48;33.20;91.30
4487;DHT22;2256;48.740;9.106;2023-06-22T09:00:16;33.00;91.60
4487;DHT22;2256;48.740;9.106;2023-06-22T09:02:45;32.70;91.80
4487;DHT22;2256;48.740;9.106;2023-06-22T09:05:13;32.30;92.50
4487;DHT22;2256;48.740;9.106;2023-06-22T09:07:40;32.40;92.60
4487;DHT22;2256;48.740;9.106;2023-06-22T09:10:08;32.90;92.00
4487;DHT22;2256;48.740;9.106;2023-06-22T09:12:35;32.80;92.20
4487;DHT22;2256;48.740;9.106;2023-06-22T09:15:04;32.90;92.30
4487;DHT22;2256;48.740;9.106;2023-06-22T09:17:33;33.40;91.80
4487;DHT22;2256;48.740;9.106;2023-06-22T09:20:00;34.00;91.60
4487;DHT22;2256;48.740;9.106;2023-06-22T09:22:28;34.70;91.10
4487;DHT22;2256;48.740;9.106;2023-06-22T09:24:55;34.80;90.10
4487;DHT22;2256;48.740;9.106;2023-06-22T09:27:23;35.00;91.00
4487;DHT22;2256;48.740;9.106;2023-06-22T09:29:50;35.70;90.30
4487;DHT22;2256;48.740;9.106;2023-06-22T09:32:17;35.90;89.20
4487;DHT22;2256;48.740;9.106;2023-06-22T09:34:44;35.70;88.30
4487;DHT22;2256;48.740;9.106;2023-06-22T09:37:10;36.00;87.80
4487;DHT22;2256;48.740;9.106;2023-06-22T09:39:37;36.10;87.90
4487;DHT22;2256;48.740;9.106;2023-06-22T09:42:05;36.00;87.20
4487;DHT22;2256;48.740;9.106;2023-06-22T09:44:34;36.00;87.20
4487;DHT22;2256;48.740;9.106;2023-06-22T09:47:01;36.10;86.50
4487;DHT22;2256;48.740;9.106;2023-06-22T09:49:28;35.90;86.60
4487;DHT22;2256;48.740;9.106;2023-06-22T09:51:55;35.40;88.30
4487;DHT22;2256;48.740;9.106;2023-06-22T09:54:23;34.90;87.90
4487;DHT22;2256;48.740;9.106;2023-06-22T09:56:50;34.90;90.10
4487;DHT22;2256;48.740;9.106;2023-06-22T09:59:16;35.20;89.70
4487;DHT22;2256;48.740;9.106;2023-06-22T10:01:45;35.20;88.60
4487;DHT22;2256;48.740;9.106;2023-06-22T10:04:11;34.90;89.20
4487;DHT22;2256;48.740;9.106;2023-06-22T10:06:38;34.40;89.70
4487;DHT22;2256;48.740;9.106;2023-06-22T10:09:06;33.40;90.60
4487;DHT22;2256;48.740;9.106;2023-06-22T10:11:34;32.80;91.30
4487;DHT22;2256;48.740;9.106;2023-06-22T10:14:01;32.30;91.80
4487;DHT22;2256;48.740;9.106;2023-06-22T10:16:30;32.00;92.30
4487;DHT22;2256;48.740;9.106;2023-06-22T10:18:59;31.90;92.50
4487;DHT22;2256;48.740;9.106;2023-06-22T10:21:25;32.00;92.30
4487;DHT22;2256;48.740;9.106;2023-06-22T10:23:54;32.20;92.70
4487;DHT22;2256;48.740;9.106;2023-06-22T10:26:21;32.50;91.70
4487;DHT22;2256;48.740;9.106;2023-06-22T10:28:48;32.60;91.70
4487;DHT22;2256;48.740;9.106;2023-06-22T10:31:15;32.70;91.50
4487;DHT22;2256;48.740;9.106;2023-06-22T10:33:42;32.80;91.60
4487;DHT22;2256;48.740;9.106;2023-06-22T10:36:11;33.00;91.80
4487;DHT22;2256;48.740;9.106;2023-06-22T10:38:37;33.00;91.30
4487;DHT22;2256;48.740;9.106;2023-06-22T10:41:04;33.10;91.50
4487;DHT22;2256;48.740;9.106;2023-06-22T10:43:31;33.50;91.40
4487;DHT22;2256;48.740;9.106;2023-06-22T10:46:00;33.50;91.00
4487;DHT22;2256;48.740;9.106;2023-06-22T10:48:27;33.40;90.80
4487;DHT22;2256;48.740;9.106;2023-06-22T10:50:54;33.40;90.80
4487;DHT22;2256;48.740;9.106;2023-06-22T10:53:22;33.50;91.00
4487;DHT22;2256;48.740;9.106;2023-06-22T10:55:49;33.40;91.00
4487;DHT22;2256;48.740;9.106;2023-06-22T10:58:17;33.40;91.50
4487;DHT22;2256;48.740;9.106;2023-06-22T11:00:44;33.40;91.30
4487;DHT22;2256;48.740;9.106;2023-06-22T11:03:11;33.40;91.60
4487;DHT22;2256;48.740;9.106;2023-06-22T11:05:39;33.50;91.20
4487;DHT22;2256;48.740;9.106;2023-06-22T11:08:07;33.40;91.10
4487;DHT22;2256;48.740;9.106;2023-06-22T11:10:38;33.30;90.80
4487;DHT22;2256;48.740;9.106;2023-06-22T11:13:05;33.20;91.10
4487;DHT22;2256;48.740;9.106;2023-06-22T11:15:35;33.30;90.80
4487;DHT22;2256;48.740;9.106;2023-06-22T11:18:02;33.40;90.50
4487;DHT22;2256;48.740;9.106;2023-06-22T11:20:30;33.40;90.80
4487;DHT22;2256;48.740;9.106;2023-06-22T11:22:59;33.30;91.40
4487;DHT22;2256;48.740;9.106;2023-06-22T11:25:26;33.00;91.10
4487;DHT22;2256;48.740;9.106;2023-06-22T11:27:55;32.30;91.80
4487;DHT22;2256;48.740;9.106;2023-06-22T11:30:22;31.80;92.10
4487;DHT22;2256;48.740;9.106;2023-06-22T11:32:49;31.60;92.80
4487;DHT22;2256;48.740;9.106;2023-06-22T11:35:17;31.70;92.20
4487;DHT22;2256;48.740;9.106;2023-06-22T11:37:43;32.00;92.40
4487;DHT22;2256;48.740;9.106;2023-06-22T11:40:11;32.20;92.10
4487;DHT22;2256;48.740;9.106;2023-06-22T11:42:38;32.00;92.10
4487;DHT22;2256;48.740;9.106;2023-06-22T11:45:07;32.20;92.30
4487;DHT22;2256;48.740;9.106;2023-06-22T11:47:34;32.50;92.40
4487;DHT22;2256;48.740;9.106;2023-06-22T11:50:01;32.80;92.70
4487;DHT22;2256;48.740;9.106;2023-06-22T11:52:28;32.80;91.40
4487;DHT22;2256;48.740;9.106;2023-06-22T11:54:55;32.50;91.50
4487;DHT22;2256;48.740;9.106;2023-06-22T11:57:22;32.50;92.00
4487;DHT22;2256;48.740;9.106;2023-06-22T11:59:49;32.50;92.40
4487;DHT22;2256;48.740;9.106;2023-06-22T12:02:17;32.50;92.50
4487;DHT22;2256;48.740;9.106;2023-06-22T12:04:43;32.60;92.20
4487;DHT22;2256;48.740;9.106;2023-06-22T12:07:10;32.70;92.30
4487;DHT22;2256;48.740;9.106;2023-06-22T12:09:37;32.80;92.20
4487;DHT22;2256;48.740;9.106;2023-06-22T12:12:04;32.60;92.40
4487;DHT22;2256;48.740;9.106;2023-06-22T12:14:31;32.40;92.90
4487;DHT22;2256;48.740;9.106;2023-06-22T12:16:58;32.10;93.00
4487;DHT22;2256;48.740;9.106;2023-06-22T12:19:26;32.20;93.50
4487;DHT22;2256;48.740;9.106;2023-06-22T12:21:52;32.30;93.10
4487;DHT22;2256;48.740;9.106;2023-06-22T12:24:19;32.50;92.80
4487;DHT22;2256;48.740;9.106;2023-06-22T12:26:46;32.70;93.20
4487;DHT22;2256;48.740;9.106;2023-06-22T12:29:13;32.80;92.70
4487;DHT22;2256;48.740;9.106;2023-06-22T12:31:39;32.70;92.10
4487;DHT22;2256;48.740;9.106;2023-06-22T12:34:07;32.70;92.40
4487;DHT22;2256;48.740;9.106;2023-06-22T12:36:35;32.70;91.90
4487;DHT22;2256;48.740;9.106;2023-06-22T12:39:02;32.60;92.00
4487;DHT22;2256;48.740;9.106;2023-06-22T12:41:29;32.50;92.20
4487;DHT22;2256;48.740;9.106;2023-06-22T12:43:55;32.40;92.20
4487;DHT22;2256;48.740;9.106;2023-06-22T12:46:22;32.40;92.20
4487;DHT22;2256;48.740;9.106;2023-06-22T12:48:49;32.40;92.50
4487;DHT22;2256;48.740;9.106;2023-06-22T12:51:20;32.50;92.60
4487;DHT22;2256;48.740;9.106;2023-06-22T12:53:48;32.50;92.80
4487;DHT22;2256;48.740;9.106;2023-06-22T12:56:15;32.40;92.60
4487;DHT22;2256;48.740;9.106;2023-06-22T12:58:42;32.20;92.80
4487;DHT22;2256;48.740;9.106;2023-06-22T13:01:09;32.00;93.30
4487;DHT22;2256;48.740;9.106;2023-06-22T13:03:35;31.80;93.10
4487;DHT22;2256;48.740;9.106;2023-06-22T13:06:02;31.60;93.60
4487;DHT22;2256;48.740;9.106;2023-06-22T13:08:30;31.40;94.00
4487;DHT22;2256;48.740;9.106;2023-06-22T13:10:58;31.20;94.30
4487;DHT22;2256;48.740;9.106;2023-06-22T13:13:25;31.00;94.60
4487;DHT22;2256;48.740;9.106;2023-06-22T13:15:52;31.00;94.80
4487;DHT22;2256;48.740;9.106;2023-06-22T13:18:20;31.00;94.70
4487;DHT22;2256;48.740;9.106;2023-06-22T13:20:46;31.20;94.70
4487;DHT22;2256;48.740;9.106;2023-06-22T13:23:13;31.30;94.80
4487;DHT22;2256;48.740;9.106;2023-06-22T13:25:40;31.40;94.70
4487;DHT22;2256;48.740;9.106;2023-06-22T13:28:08;31.70;94.30
4487;DHT22;2256;48.740;9.106;2023-06-22T13:30:36;31.90;94.30
4487;DHT22;2256;48.740;9.106;2023-06-22T13:33:03;32.20;94.00
4487;DHT22;2256;48.740;9.106;2023-06-22T13:35:30;32.20;93.60
4487;DHT22;2256;48.740;9.106;2023-06-22T13:37:57;32.40;93.10
4487;DHT22;2256;48.740;9.106;2023-06-22T13:40:24;32.60;92.50
4487;DHT22;2256;48.740;9.106;2023-06-22T13:42:51;32.80;92.30
4487;DHT22;2256;48.740;9.106;2023-06-22T13:45:23;32.80;92.40
4487;DHT22;2256;48.740;9.106;2023-06-22T13:47:50;33.00;92.40
4487;DHT22;2256;48.740;9.106;2023-06-22T13:50:16;33.00;91.80
4487;DHT22;2256;48.740;9.106;2023-06-22T13:52:43;32.90;91.10
4487;DHT22;2256;48.740;9.106;2023-06-22T13:55:10;32.90;91.40
4487;DHT22;2256;48.740;9.106;2023-06-22T13:57:40;32.90;91.50
4487;DHT22;2256;48.740;9.106;2023-06-22T14:00:08;32.90;91.70
4487;DHT22;2256;48.740;9.106;2023-06-22T14:02:37;32.80;91.00
4487;DHT22;2256;48.740;9.106;2023-06-22T14:05:05;33.00;90.90
4487;DHT22;2256;48.740;9.106;2023-06-22T14:07:32;33.00;91.10
4487;DHT22;2256;48.740;9.106;2023-06-22T14:10:00;33.20;91.60
4487;DHT22;2256;48.740;9.106;2023-06-22T14:12:27;33.50;90.60
4487;DHT22;2256;48.740;9.106;2023-06-22T14:14:53;33.90;90.30
4487;DHT22;2256;48.740;9.106;2023-06-22T14:17:20;34.20;89.50
4487;DHT22;2256;48.740;9.106;2023-06-22T14:19:52;34.50;87.00
4487;DHT22;2256;48.740;9.106;2023-06-22T14:22:19;34.40;87.10
4487;DHT22;2256;48.740;9.106;2023-06-22T14:24:46;34.20;85.80
4487;DHT22;2256;48.740;9.106;2023-06-22T14:27:13;34.00;87.00
4487;DHT22;2256;48.740;9.106;2023-06-22T14:29:40;33.70;86.00
4487;DHT22;2256;48.740;9.106;2023-06-22T14:32:08;33.70;87.40
4487;DHT22;2256;48.740;9.106;2023-06-22T14:34:35;33.60;85.10
4487;DHT22;2256;48.740;9.106;2023-06-22T14:37:06;33.50;83.20
4487;DHT22;2256;48.740;9.106;2023-06-22T14:39:35;33.30;84.30
4487;DHT22;2256;48.740;9.106;2023-06-22T14:42:03;33.40;83.40
4487;DHT22;2256;48.740;9.106;2023-06-22T14:44:31;33.60;81.40
4487;DHT22;2256;48.740;9.106;2023-06-22T14:46:58;33.80;79.40
4487;DHT22;2256;48.740;9.106;2023-06-22T14:49:25;33.60;76.10
4487;DHT22;2256;48.740;9.106;2023-06-22T14:51:52;33.30;73.10
4487;DHT22;2256;48.740;9.106;2023-06-22T14:54:21;33.10;74.10
4487;DHT22;2256;48.740;9.106;2023-06-22T14:56:47;32.90;73.60
4487;DHT22;2256;48.740;9.106;2023-06-22T14:59:14;32.60;73.60
4487;DHT22;2256;48.740;9.106;2023-06-22T15:01:41;32.60;74.40
4487;DHT22;2256;48.740;9.106;2023-06-22T15:04:08;32.50;74.60
4487;DHT22;2256;48.740;9.106;2023-06-22T15:06:35;32.30;73.90
4487;DHT22;2256;48.740;9.106;2023-06-22T15:09:02;32.10;73.90
4487;DHT22;2256;48.740;9.106;2023-06-22T15:11:30;32.00;75.10
4487;DHT22;2256;48.740;9.106;2023-06-22T15:13:58;32.10;75.10
4487;DHT22;2256;48.740;9.106;2023-06-22T15:16:26;32.10;75.10
4487;DHT22;2256;48.740;9.106;2023-06-22T15:18:53;32.20;74.90
4487;DHT22;2256;48.740;9.106;2023-06-22T15:21:19;32.40;74.40
4487;DHT22;2256;48.740;9.106;2023-06-22T15:23:46;32.20;73.30
4487;DHT22;2256;48.740;9.106;2023-06-22T15:26:13;32.20;75.10
4487;DHT22;2256;48.740;9.106;2023-06-22T15:28:41;32.20;73.00
4487;DHT22;2256;48.740;9.106;2023-06-22T15:31:08;32.00;72.40
4487;DHT22;2256;48.740;9.106;2023-06-22T15:33:35;31.80;73.30
4487;DHT22;2256;48.740;9.106;2023-06-22T15:36:02;31.80;73.60
4487;DHT22;2256;48.740;9.106;2023-06-22T15:38:32;31.60;74.30
4487;DHT22;2256;48.740;9.106;2023-06-22T15:40:59;31.60;74.80
4487;DHT22;2256;48.740;9.106;2023-06-22T15:43:26;31.70;74.40
4487;DHT22;2256;48.740;9.106;2023-06-22T15:45:54;31.70;74.80
4487;DHT22;2256;48.740;9.106;2023-06-22T15:48:21;31.80;75.20
4487;DHT22;2256;48.740;9.106;2023-06-22T15:50:48;31.90;75.00
4487;DHT22;2256;48.740;9.106;2023-06-22T15:53:16;32.10;75.00
4487;DHT22;2256;48.740;9.106;2023-06-22T15:55:43;32.00;75.50
4487;DHT22;2256;48.740;9.106;2023-06-22T15:58:12;31.80;76.20
4487;DHT22;2256;48.740;9.106;2023-06-22T16:00:42;31.70;76.40
4487;DHT22;2256;48.740;9.106;2023-06-22T16:03:10;31.60;76.30
4487;DHT22;2256;48.740;9.106;2023-06-22T16:05:37;31.40;76.60